»·PEaware :: SNIPER91 KLSV-KLSV

SNIPER91 :: KLSV-KLSV

FLIGHT INFORMATION

Flight Status: Arrived
Operator: Unknown
More flights by this operator :: More flights under this callsign
Pilot: Anthony C. (15741)
Aircraft: NORTHROP F-5 FREEDON FIGHTER
(F5)
More flights by this aircraft type
Origin: KLSV Nellis AFB
United States
Destination: KLSV Nellis AFB
United States
More flights between these airports :: More routes between these airports
Route: +DREAM4 JUNNO
File this flight plan on PilotEdge
Remarks: CLNC LIMIT JUUNO
Altitude:
(Current/Filed)
17,000ft
Speed:
(Current/Filed)
320kts
Departed: 22-Jun-17 08:05 PM
Arrived: 22-Jun-17 08:49 PM
Distance/Time
Traveled:
1nm/0:44
Distance/Time
To Go:
Arrived

Flight Plot

Page will automatically refresh every two minutes.

Flight plan parsing failed; only flown route is shown


Map Options




Map Legend


Flown Route
Filed Route
Departure Airport
Arrival Airport
Navaid (VOR, NDB)
Fix

Horizontal Profiles

Position Reports

Time Latitude Longitude Heading Altitude Ground
Speed
22-Jun-17 19:39 36.232358 -115.022535 95 1849ft 0kts
22-Jun-17 19:40 36.232358 -115.022535 95 1849ft 0kts
22-Jun-17 19:41 36.232358 -115.022535 95 1849ft 0kts
22-Jun-17 19:42 36.232358 -115.022535 95 1849ft 0kts
22-Jun-17 19:43 36.232358 -115.022535 95 1849ft 0kts
22-Jun-17 19:44 36.232358 -115.022535 95 1849ft 0kts
22-Jun-17 19:45 36.232358 -115.022535 95 1849ft 0kts
22-Jun-17 19:46 36.232358 -115.022535 95 1849ft 0kts
22-Jun-17 19:47 36.232358 -115.022535 95 1849ft 0kts
22-Jun-17 19:48 36.232358 -115.022535 95 1849ft 0kts
22-Jun-17 19:49 36.232358 -115.022535 95 1849ft 0kts
22-Jun-17 19:50 36.232169 -115.022243 215 1849ft 1kts
22-Jun-17 19:51 36.231817 -115.022968 236 1849ft 0kts
22-Jun-17 19:52 36.231814 -115.022974 236 1849ft 0kts
22-Jun-17 19:53 36.231739 -115.023163 241 1849ft 0kts
22-Jun-17 19:54 36.231002 -115.026063 233 1848ft 14kts
22-Jun-17 19:55 36.229841 -115.032625 219 1847ft 25kts
22-Jun-17 19:56 36.225245 -115.037607 220 1847ft 23kts
22-Jun-17 19:57 36.223223 -115.041722 310 1846ft 20kts
22-Jun-17 19:58 36.224336 -115.043242 318 1846ft 0kts
22-Jun-17 19:59 36.224336 -115.043242 318 1846ft 0kts
22-Jun-17 20:00 36.225497 -115.043553 40 1846ft 0kts
22-Jun-17 20:01 36.231576 -115.036951 38 1847ft 39kts
22-Jun-17 20:02 36.231958 -115.035069 130 1847ft 0kts
22-Jun-17 20:03 36.231958 -115.035069 130 1847ft 0kts
22-Jun-17 20:04 36.230342 -115.032787 131 1847ft 23kts
22-Jun-17 20:05 36.226747 -115.035988 220 1847ft 24kts
22-Jun-17 20:06 36.223371 -115.041937 309 1846ft 21kts
22-Jun-17 20:07 36.225522 -115.043518 40 1846ft 2kts
22-Jun-17 20:08 36.268363 -114.996707 40 3009ft 312kts
22-Jun-17 20:09 36.335861 -114.918651 43 7416ft 337kts
22-Jun-17 20:10 36.408618 -114.896937 309 10296ft 347kts
22-Jun-17 20:11 36.483765 -114.978058 357 13408ft 415kts
22-Jun-17 20:12 36.602942 -114.983259 357 16390ft 445kts
22-Jun-17 20:13 36.723341 -114.996758 334 17380ft 468kts
22-Jun-17 20:14 36.836058 -115.088285 326 16500ft 504kts
22-Jun-17 20:15 36.950642 -115.174699 328 14270ft 501kts
22-Jun-17 20:16 37.054540 -115.243084 20 9849ft 362kts
22-Jun-17 20:17 36.995471 -115.161242 181 7008ft 416kts
22-Jun-17 20:18 37.002035 -115.275885 221 3795ft 506kts
22-Jun-17 20:19 36.991921 -115.249540 327 3284ft 421kts
22-Jun-17 20:20 36.974501 -115.292067 6 5079ft 366kts
22-Jun-17 20:21 37.018638 -115.225541 90 3881ft 393kts
22-Jun-17 20:22 36.936621 -115.240865 281 3459ft 435kts
22-Jun-17 20:23 36.924304 -115.333302 252 7284ft 398kts
22-Jun-17 20:24 36.966638 -115.316619 71 11336ft 455kts
22-Jun-17 20:25 36.993071 -115.139449 114 10734ft 404kts
22-Jun-17 20:26 36.901449 -115.069479 145 11208ft 410kts
22-Jun-17 20:27 36.828206 -114.996385 138 11342ft 388kts
22-Jun-17 20:28 36.736536 -114.922382 155 11039ft 411kts
22-Jun-17 20:29 36.609767 -114.885259 171 10916ft 421kts
22-Jun-17 20:30 36.512633 -114.871480 172 10760ft 397kts
22-Jun-17 20:31 36.409233 -114.880102 198 6704ft 360kts
22-Jun-17 20:32 36.323624 -114.938149 219 3987ft 362kts
22-Jun-17 20:33 36.249015 -115.018085 220 2797ft 285kts
22-Jun-17 20:34 36.249772 -114.994476 336 2269ft 213kts
22-Jun-17 20:35 36.215515 -115.047551 148 2897ft 287kts
22-Jun-17 20:36 36.253484 -114.991588 326 2735ft 202kts
22-Jun-17 20:37 36.219954 -115.046836 126 3255ft 209kts
22-Jun-17 20:38 36.251799 -115.009989 255 2099ft 209kts
22-Jun-17 20:39 36.220076 -115.022040 34 3365ft 283kts
22-Jun-17 20:40 36.236763 -115.031317 220 1867ft 311kts
22-Jun-17 20:41 36.234525 -115.006698 38 2720ft 232kts
22-Jun-17 20:42 36.228369 -115.040430 220 1929ft 310kts
22-Jun-17 20:43 36.246029 -114.994644 10 2969ft 216kts
22-Jun-17 20:44 36.215280 -115.028612 83 7675ft 356kts
22-Jun-17 20:45 36.238438 -115.028392 204 8385ft 351kts
22-Jun-17 20:46 36.254073 -115.006405 253 2933ft 236kts
22-Jun-17 20:47 36.215123 -115.022373 39 3289ft 262kts
22-Jun-17 20:48 36.236643 -115.031346 220 1887ft 350kts
22-Jun-17 20:49 36.230923 -115.007168 40 3073ft 230kts
22-Jun-17 20:50 36.221575 -115.047346 181 2599ft 201kts
22-Jun-17 20:51 36.250793 -114.997632 309 2890ft 223kts
22-Jun-17 20:52 36.237012 -115.031054 221 1849ft 25kts
22-Jun-17 20:53 36.231784 -115.034830 130 1847ft 11kts
22-Jun-17 20:54 36.230698 -115.029256 90 1847ft 24kts
22-Jun-17 20:55 36.232382 -115.022806 90 1849ft 10kts

Navigation Log

Ident Type
Flight plan parsing failed, navigation log unavailable